Aviation Digital Data Service (ADDS)

Output produced by METARs form (0424 UTC 02 April 2015)
found at http://aviationweather.gov/adds/metars/
 
KMIV 012336Z 0200/0224 30010KT P6SM SKC 
     FM020100 00000KT P6SM SKC 
     FM021300 21008KT P6SM SCT250 
     FM021600 21012G22KT P6SM BKN250